sensor_id;sensor_type;location;lat;lon;timestamp;P1;durP1;ratioP1;P2;durP2;ratioP2
24337;SDS011;12457;50.832;4.346;2023-05-13T00:00:13;10.90;;;7.55;;
24337;SDS011;12457;50.832;4.346;2023-05-13T00:02:41;16.33;;;8.93;;
24337;SDS011;12457;50.832;4.346;2023-05-13T00:05:07;11.27;;;7.90;;
24337;SDS011;12457;50.832;4.346;2023-05-13T00:07:33;10.95;;;8.65;;
24337;SDS011;12457;50.832;4.346;2023-05-13T00:09:58;13.55;;;9.23;;
24337;SDS011;12457;50.832;4.346;2023-05-13T00:12:24;11.65;;;8.65;;
24337;SDS011;12457;50.832;4.346;2023-05-13T00:14:50;12.60;;;9.23;;
24337;SDS011;12457;50.832;4.346;2023-05-13T00:17:16;17.10;;;10.05;;
24337;SDS011;12457;50.832;4.346;2023-05-13T00:19:41;15.25;;;10.32;;
24337;SDS011;12457;50.832;4.346;2023-05-13T00:22:07;13.63;;;10.23;;
24337;SDS011;12457;50.832;4.346;2023-05-13T00:24:33;15.18;;;9.80;;
24337;SDS011;12457;50.832;4.346;2023-05-13T00:26:58;11.63;;;9.30;;
24337;SDS011;12457;50.832;4.346;2023-05-13T00:29:24;14.43;;;9.90;;
24337;SDS011;12457;50.832;4.346;2023-05-13T00:31:50;11.98;;;9.55;;
24337;SDS011;12457;50.832;4.346;2023-05-13T00:34:16;16.25;;;9.50;;
24337;SDS011;12457;50.832;4.346;2023-05-13T00:36:42;13.68;;;9.52;;
24337;SDS011;12457;50.832;4.346;2023-05-13T00:39:08;13.73;;;9.85;;
24337;SDS011;12457;50.832;4.346;2023-05-13T00:41:35;17.00;;;10.80;;
24337;SDS011;12457;50.832;4.346;2023-05-13T00:44:01;14.10;;;10.23;;
24337;SDS011;12457;50.832;4.346;2023-05-13T00:46:30;15.80;;;10.30;;
24337;SDS011;12457;50.832;4.346;2023-05-13T00:48:59;15.70;;;10.70;;
24337;SDS011;12457;50.832;4.346;2023-05-13T00:51:25;17.40;;;10.38;;
24337;SDS011;12457;50.832;4.346;2023-05-13T00:53:51;15.80;;;10.60;;
24337;SDS011;12457;50.832;4.346;2023-05-13T00:56:19;15.45;;;10.82;;
24337;SDS011;12457;50.832;4.346;2023-05-13T00:58:48;17.42;;;11.30;;
24337;SDS011;12457;50.832;4.346;2023-05-13T01:06:51;15.25;;;12.50;;
24337;SDS011;12457;50.832;4.346;2023-05-13T01:09:24;16.10;;;11.68;;
24337;SDS011;12457;50.832;4.346;2023-05-13T01:14:56;34.90;;;16.63;;
24337;SDS011;12457;50.832;4.346;2023-05-13T01:17:32;16.33;;;11.82;;
24337;SDS011;12457;50.832;4.346;2023-05-13T01:20:04;22.67;;;12.90;;
24337;SDS011;12457;50.832;4.346;2023-05-13T01:22:30;17.88;;;11.65;;
24337;SDS011;12457;50.832;4.346;2023-05-13T01:24:56;21.42;;;11.80;;
24337;SDS011;12457;50.832;4.346;2023-05-13T01:30:08;15.77;;;12.32;;
24337;SDS011;12457;50.832;4.346;2023-05-13T01:32:34;25.10;;;12.05;;
24337;SDS011;12457;50.832;4.346;2023-05-13T01:35:01;26.17;;;12.23;;
24337;SDS011;12457;50.832;4.346;2023-05-13T01:37:28;16.65;;;12.05;;
24337;SDS011;12457;50.832;4.346;2023-05-13T01:39:54;19.85;;;13.18;;
24337;SDS011;12457;50.832;4.346;2023-05-13T01:42:21;21.83;;;12.55;;
24337;SDS011;12457;50.832;4.346;2023-05-13T01:44:49;21.88;;;12.02;;
24337;SDS011;12457;50.832;4.346;2023-05-13T01:47:15;23.70;;;11.98;;
24337;SDS011;12457;50.832;4.346;2023-05-13T01:49:43;16.88;;;12.38;;
24337;SDS011;12457;50.832;4.346;2023-05-13T01:52:08;26.02;;;12.23;;
24337;SDS011;12457;50.832;4.346;2023-05-13T01:54:34;18.70;;;12.40;;
24337;SDS011;12457;50.832;4.346;2023-05-13T01:57:01;20.25;;;12.35;;
24337;SDS011;12457;50.832;4.346;2023-05-13T01:59:27;17.88;;;12.40;;
24337;SDS011;12457;50.832;4.346;2023-05-13T02:01:53;18.58;;;12.30;;
24337;SDS011;12457;50.832;4.346;2023-05-13T02:04:18;17.30;;;12.93;;
24337;SDS011;12457;50.832;4.346;2023-05-13T02:06:44;19.10;;;12.55;;
24337;SDS011;12457;50.832;4.346;2023-05-13T02:09:09;16.58;;;13.32;;
24337;SDS011;12457;50.832;4.346;2023-05-13T02:11:35;16.77;;;12.77;;
24337;SDS011;12457;50.832;4.346;2023-05-13T02:14:01;19.27;;;12.40;;
24337;SDS011;12457;50.832;4.346;2023-05-13T02:16:26;17.48;;;13.48;;
24337;SDS011;12457;50.832;4.346;2023-05-13T02:18:52;15.13;;;12.50;;
24337;SDS011;12457;50.832;4.346;2023-05-13T02:21:18;22.42;;;13.13;;
24337;SDS011;12457;50.832;4.346;2023-05-13T02:23:43;16.30;;;12.25;;
24337;SDS011;12457;50.832;4.346;2023-05-13T02:26:09;17.48;;;12.40;;
24337;SDS011;12457;50.832;4.346;2023-05-13T02:28:35;16.60;;;13.07;;
24337;SDS011;12457;50.832;4.346;2023-05-13T02:31:01;18.40;;;13.80;;
24337;SDS011;12457;50.832;4.346;2023-05-13T02:33:26;21.65;;;14.55;;
24337;SDS011;12457;50.832;4.346;2023-05-13T02:35:52;19.10;;;14.13;;
24337;SDS011;12457;50.832;4.346;2023-05-13T02:38:18;20.90;;;14.57;;
24337;SDS011;12457;50.832;4.346;2023-05-13T02:40:45;21.58;;;15.00;;
24337;SDS011;12457;50.832;4.346;2023-05-13T02:43:11;19.20;;;14.80;;
24337;SDS011;12457;50.832;4.346;2023-05-13T02:45:38;22.17;;;14.45;;
24337;SDS011;12457;50.832;4.346;2023-05-13T02:48:04;18.17;;;12.85;;
24337;SDS011;12457;50.832;4.346;2023-05-13T02:50:30;18.48;;;12.55;;
24337;SDS011;12457;50.832;4.346;2023-05-13T02:52:56;20.42;;;14.27;;
24337;SDS011;12457;50.832;4.346;2023-05-13T02:55:22;23.33;;;13.45;;
24337;SDS011;12457;50.832;4.346;2023-05-13T02:57:48;16.42;;;12.38;;
24337;SDS011;12457;50.832;4.346;2023-05-13T03:00:15;18.80;;;13.15;;
24337;SDS011;12457;50.832;4.346;2023-05-13T03:02:41;18.60;;;12.15;;
24337;SDS011;12457;50.832;4.346;2023-05-13T03:05:06;26.38;;;12.23;;
24337;SDS011;12457;50.832;4.346;2023-05-13T03:07:32;18.35;;;12.52;;
24337;SDS011;12457;50.832;4.346;2023-05-13T03:09:58;15.93;;;12.38;;
24337;SDS011;12457;50.832;4.346;2023-05-13T03:12:25;18.55;;;12.82;;
24337;SDS011;12457;50.832;4.346;2023-05-13T03:14:51;13.68;;;11.35;;
24337;SDS011;12457;50.832;4.346;2023-05-13T03:17:17;13.70;;;11.07;;
24337;SDS011;12457;50.832;4.346;2023-05-13T03:19:42;17.27;;;12.82;;
24337;SDS011;12457;50.832;4.346;2023-05-13T03:22:08;18.45;;;12.65;;
24337;SDS011;12457;50.832;4.346;2023-05-13T03:24:34;18.05;;;12.93;;
24337;SDS011;12457;50.832;4.346;2023-05-13T03:26:59;16.75;;;11.68;;
24337;SDS011;12457;50.832;4.346;2023-05-13T03:29:25;21.02;;;12.50;;
24337;SDS011;12457;50.832;4.346;2023-05-13T03:31:51;19.05;;;12.27;;
24337;SDS011;12457;50.832;4.346;2023-05-13T03:34:17;18.38;;;12.25;;
24337;SDS011;12457;50.832;4.346;2023-05-13T03:36:43;17.27;;;12.05;;
24337;SDS011;12457;50.832;4.346;2023-05-13T03:39:09;21.02;;;13.45;;
24337;SDS011;12457;50.832;4.346;2023-05-13T03:41:43;19.63;;;12.23;;
24337;SDS011;12457;50.832;4.346;2023-05-13T03:44:09;16.38;;;12.13;;
24337;SDS011;12457;50.832;4.346;2023-05-13T03:46:35;22.38;;;12.18;;
24337;SDS011;12457;50.832;4.346;2023-05-13T03:49:01;20.67;;;12.45;;
24337;SDS011;12457;50.832;4.346;2023-05-13T03:51:27;16.08;;;12.30;;
24337;SDS011;12457;50.832;4.346;2023-05-13T03:53:52;17.88;;;11.52;;
24337;SDS011;12457;50.832;4.346;2023-05-13T03:56:18;15.50;;;12.00;;
24337;SDS011;12457;50.832;4.346;2023-05-13T03:58:45;19.10;;;12.45;;
24337;SDS011;12457;50.832;4.346;2023-05-13T04:01:11;26.23;;;12.52;;
24337;SDS011;12457;50.832;4.346;2023-05-13T04:03:36;20.60;;;13.10;;
24337;SDS011;12457;50.832;4.346;2023-05-13T04:06:02;17.98;;;13.88;;
24337;SDS011;12457;50.832;4.346;2023-05-13T04:08:28;15.82;;;12.18;;
24337;SDS011;12457;50.832;4.346;2023-05-13T04:10:53;19.48;;;13.82;;
24337;SDS011;12457;50.832;4.346;2023-05-13T04:13:21;21.55;;;12.77;;
24337;SDS011;12457;50.832;4.346;2023-05-13T04:15:46;19.67;;;14.15;;
24337;SDS011;12457;50.832;4.346;2023-05-13T04:18:12;14.52;;;12.30;;
24337;SDS011;12457;50.832;4.346;2023-05-13T04:20:38;16.35;;;12.60;;
24337;SDS011;12457;50.832;4.346;2023-05-13T04:23:04;19.60;;;12.43;;
24337;SDS011;12457;50.832;4.346;2023-05-13T04:25:30;18.63;;;12.77;;
24337;SDS011;12457;50.832;4.346;2023-05-13T04:27:56;18.77;;;12.77;;
24337;SDS011;12457;50.832;4.346;2023-05-13T04:30:22;18.73;;;12.20;;
24337;SDS011;12457;50.832;4.346;2023-05-13T04:32:47;22.45;;;11.50;;
24337;SDS011;12457;50.832;4.346;2023-05-13T04:35:13;20.00;;;11.35;;
24337;SDS011;12457;50.832;4.346;2023-05-13T04:37:39;15.50;;;11.82;;
24337;SDS011;12457;50.832;4.346;2023-05-13T04:40:05;15.52;;;10.75;;
24337;SDS011;12457;50.832;4.346;2023-05-13T04:42:32;19.63;;;12.30;;
24337;SDS011;12457;50.832;4.346;2023-05-13T04:44:58;17.27;;;10.82;;
24337;SDS011;12457;50.832;4.346;2023-05-13T04:47:23;13.57;;;9.52;;
24337;SDS011;12457;50.832;4.346;2023-05-13T04:49:49;14.35;;;9.40;;
24337;SDS011;12457;50.832;4.346;2023-05-13T04:52:15;14.35;;;9.23;;
24337;SDS011;12457;50.832;4.346;2023-05-13T04:54:40;12.57;;;8.45;;
24337;SDS011;12457;50.832;4.346;2023-05-13T04:57:11;12.70;;;8.70;;
24337;SDS011;12457;50.832;4.346;2023-05-13T04:59:37;12.48;;;9.02;;
24337;SDS011;12457;50.832;4.346;2023-05-13T05:02:03;12.63;;;8.25;;
24337;SDS011;12457;50.832;4.346;2023-05-13T05:04:28;11.77;;;8.80;;
24337;SDS011;12457;50.832;4.346;2023-05-13T05:06:54;9.70;;;8.35;;
24337;SDS011;12457;50.832;4.346;2023-05-13T05:09:20;14.63;;;8.65;;
24337;SDS011;12457;50.832;4.346;2023-05-13T05:11:47;15.23;;;8.48;;
24337;SDS011;12457;50.832;4.346;2023-05-13T05:14:14;9.52;;;7.47;;
24337;SDS011;12457;50.832;4.346;2023-05-13T05:16:40;12.88;;;7.60;;
24337;SDS011;12457;50.832;4.346;2023-05-13T05:19:06;10.30;;;7.43;;
24337;SDS011;12457;50.832;4.346;2023-05-13T05:21:31;9.95;;;7.10;;
24337;SDS011;12457;50.832;4.346;2023-05-13T05:23:57;11.90;;;7.70;;
24337;SDS011;12457;50.832;4.346;2023-05-13T05:26:23;11.13;;;7.72;;
24337;SDS011;12457;50.832;4.346;2023-05-13T05:28:49;9.18;;;7.10;;
24337;SDS011;12457;50.832;4.346;2023-05-13T05:31:15;10.13;;;7.72;;
24337;SDS011;12457;50.832;4.346;2023-05-13T05:33:40;13.98;;;6.93;;
24337;SDS011;12457;50.832;4.346;2023-05-13T05:36:06;12.38;;;6.80;;
24337;SDS011;12457;50.832;4.346;2023-05-13T05:38:32;12.15;;;6.90;;
24337;SDS011;12457;50.832;4.346;2023-05-13T05:40:58;10.77;;;7.28;;
24337;SDS011;12457;50.832;4.346;2023-05-13T05:43:29;9.68;;;6.90;;
24337;SDS011;12457;50.832;4.346;2023-05-13T05:45:55;9.60;;;7.13;;
24337;SDS011;12457;50.832;4.346;2023-05-13T05:48:20;10.88;;;7.35;;
24337;SDS011;12457;50.832;4.346;2023-05-13T05:50:46;12.07;;;7.68;;
24337;SDS011;12457;50.832;4.346;2023-05-13T05:53:13;10.13;;;7.45;;
24337;SDS011;12457;50.832;4.346;2023-05-13T05:55:38;12.65;;;7.43;;
24337;SDS011;12457;50.832;4.346;2023-05-13T05:58:04;10.60;;;7.28;;
24337;SDS011;12457;50.832;4.346;2023-05-13T06:00:31;9.27;;;6.95;;
24337;SDS011;12457;50.832;4.346;2023-05-13T06:02:59;8.93;;;7.38;;
24337;SDS011;12457;50.832;4.346;2023-05-13T06:05:25;11.50;;;7.03;;
24337;SDS011;12457;50.832;4.346;2023-05-13T06:07:51;8.10;;;6.47;;
24337;SDS011;12457;50.832;4.346;2023-05-13T06:10:16;10.85;;;7.20;;
24337;SDS011;12457;50.832;4.346;2023-05-13T06:12:42;8.15;;;6.47;;
24337;SDS011;12457;50.832;4.346;2023-05-13T06:15:08;12.23;;;6.95;;
24337;SDS011;12457;50.832;4.346;2023-05-13T06:17:37;10.50;;;6.63;;
24337;SDS011;12457;50.832;4.346;2023-05-13T06:20:03;12.00;;;6.97;;
24337;SDS011;12457;50.832;4.346;2023-05-13T06:22:29;10.68;;;6.05;;
24337;SDS011;12457;50.832;4.346;2023-05-13T06:24:55;9.80;;;6.38;;
24337;SDS011;12457;50.832;4.346;2023-05-13T06:27:21;9.95;;;6.95;;
24337;SDS011;12457;50.832;4.346;2023-05-13T06:29:47;13.27;;;6.93;;
24337;SDS011;12457;50.832;4.346;2023-05-13T06:32:12;7.47;;;6.35;;
24337;SDS011;12457;50.832;4.346;2023-05-13T06:34:38;13.90;;;6.80;;
24337;SDS011;12457;50.832;4.346;2023-05-13T06:37:07;10.90;;;6.95;;
24337;SDS011;12457;50.832;4.346;2023-05-13T06:39:33;9.80;;;6.63;;
24337;SDS011;12457;50.832;4.346;2023-05-13T06:42:00;10.95;;;6.65;;
24337;SDS011;12457;50.832;4.346;2023-05-13T06:44:27;14.85;;;7.03;;
24337;SDS011;12457;50.832;4.346;2023-05-13T06:46:53;8.73;;;6.00;;
24337;SDS011;12457;50.832;4.346;2023-05-13T06:49:18;10.90;;;6.90;;
24337;SDS011;12457;50.832;4.346;2023-05-13T06:51:44;7.05;;;5.93;;
24337;SDS011;12457;50.832;4.346;2023-05-13T06:54:10;16.27;;;6.43;;
24337;SDS011;12457;50.832;4.346;2023-05-13T06:56:36;9.77;;;6.63;;
24337;SDS011;12457;50.832;4.346;2023-05-13T07:02:33;9.18;;;5.72;;
24337;SDS011;12457;50.832;4.346;2023-05-13T07:04:59;9.90;;;6.43;;
24337;SDS011;12457;50.832;4.346;2023-05-13T07:07:25;10.07;;;6.15;;
24337;SDS011;12457;50.832;4.346;2023-05-13T07:09:50;8.18;;;6.25;;
24337;SDS011;12457;50.832;4.346;2023-05-13T07:12:16;9.40;;;6.05;;
24337;SDS011;12457;50.832;4.346;2023-05-13T07:14:57;10.75;;;6.30;;
24337;SDS011;12457;50.832;4.346;2023-05-13T07:17:23;11.00;;;5.95;;
24337;SDS011;12457;50.832;4.346;2023-05-13T07:19:48;11.63;;;6.03;;
24337;SDS011;12457;50.832;4.346;2023-05-13T07:22:14;7.53;;;5.82;;
24337;SDS011;12457;50.832;4.346;2023-05-13T07:24:40;9.13;;;6.07;;
24337;SDS011;12457;50.832;4.346;2023-05-13T07:27:05;11.95;;;5.70;;
24337;SDS011;12457;50.832;4.346;2023-05-13T07:29:31;9.18;;;5.32;;
24337;SDS011;12457;50.832;4.346;2023-05-13T07:32:01;9.48;;;6.25;;
24337;SDS011;12457;50.832;4.346;2023-05-13T07:34:30;9.40;;;5.95;;
24337;SDS011;12457;50.832;4.346;2023-05-13T07:36:56;7.90;;;5.30;;
24337;SDS011;12457;50.832;4.346;2023-05-13T07:39:22;10.45;;;5.78;;
24337;SDS011;12457;50.832;4.346;2023-05-13T07:41:48;8.82;;;5.75;;
24337;SDS011;12457;50.832;4.346;2023-05-13T07:44:14;9.30;;;6.13;;
24337;SDS011;12457;50.832;4.346;2023-05-13T07:46:39;8.93;;;5.90;;
24337;SDS011;12457;50.832;4.346;2023-05-13T07:49:05;9.65;;;6.43;;
24337;SDS011;12457;50.832;4.346;2023-05-13T07:51:33;8.65;;;6.05;;
24337;SDS011;12457;50.832;4.346;2023-05-13T07:53:59;10.38;;;5.93;;
24337;SDS011;12457;50.832;4.346;2023-05-13T07:56:25;12.73;;;6.13;;
24337;SDS011;12457;50.832;4.346;2023-05-13T07:58:51;7.78;;;5.82;;
24337;SDS011;12457;50.832;4.346;2023-05-13T08:01:17;9.25;;;6.28;;
24337;SDS011;12457;50.832;4.346;2023-05-13T08:03:42;12.00;;;6.43;;
24337;SDS011;12457;50.832;4.346;2023-05-13T08:06:08;10.43;;;6.20;;
24337;SDS011;12457;50.832;4.346;2023-05-13T08:08:34;10.25;;;6.57;;
24337;SDS011;12457;50.832;4.346;2023-05-13T08:10:59;9.85;;;6.43;;
24337;SDS011;12457;50.832;4.346;2023-05-13T08:16:22;13.07;;;6.78;;
24337;SDS011;12457;50.832;4.346;2023-05-13T08:18:47;10.90;;;7.00;;
24337;SDS011;12457;50.832;4.346;2023-05-13T08:21:13;7.88;;;6.53;;
24337;SDS011;12457;50.832;4.346;2023-05-13T08:23:39;8.73;;;6.45;;
24337;SDS011;12457;50.832;4.346;2023-05-13T08:26:04;8.93;;;6.38;;
24337;SDS011;12457;50.832;4.346;2023-05-13T08:28:30;12.00;;;7.10;;
24337;SDS011;12457;50.832;4.346;2023-05-13T08:30:57;13.38;;;7.68;;
24337;SDS011;12457;50.832;4.346;2023-05-13T08:33:27;10.60;;;6.47;;
24337;SDS011;12457;50.832;4.346;2023-05-13T08:35:54;11.30;;;6.88;;
24337;SDS011;12457;50.832;4.346;2023-05-13T08:38:20;15.32;;;8.90;;
24337;SDS011;12457;50.832;4.346;2023-05-13T08:40:46;15.30;;;9.40;;
24337;SDS011;12457;50.832;4.346;2023-05-13T08:43:13;13.20;;;7.25;;
24337;SDS011;12457;50.832;4.346;2023-05-13T08:45:40;11.80;;;6.82;;
24337;SDS011;12457;50.832;4.346;2023-05-13T08:48:11;15.98;;;7.57;;
24337;SDS011;12457;50.832;4.346;2023-05-13T08:50:41;11.38;;;7.18;;
24337;SDS011;12457;50.832;4.346;2023-05-13T08:53:09;13.88;;;8.32;;
24337;SDS011;12457;50.832;4.346;2023-05-13T08:55:37;15.07;;;6.95;;
24337;SDS011;12457;50.832;4.346;2023-05-13T08:58:04;14.55;;;8.05;;
24337;SDS011;12457;50.832;4.346;2023-05-13T09:00:30;8.80;;;6.93;;
24337;SDS011;12457;50.832;4.346;2023-05-13T09:02:58;13.18;;;7.72;;
24337;SDS011;12457;50.832;4.346;2023-05-13T09:05:24;13.05;;;6.82;;
24337;SDS011;12457;50.832;4.346;2023-05-13T09:07:50;10.70;;;7.25;;
24337;SDS011;12457;50.832;4.346;2023-05-13T09:10:17;11.63;;;6.82;;
24337;SDS011;12457;50.832;4.346;2023-05-13T09:12:48;14.80;;;7.28;;
24337;SDS011;12457;50.832;4.346;2023-05-13T09:15:27;14.43;;;8.07;;
24337;SDS011;12457;50.832;4.346;2023-05-13T09:17:54;14.20;;;7.70;;
24337;SDS011;12457;50.832;4.346;2023-05-13T09:20:38;11.13;;;7.28;;
24337;SDS011;12457;50.832;4.346;2023-05-13T09:23:05;14.48;;;7.65;;
24337;SDS011;12457;50.832;4.346;2023-05-13T09:25:33;12.70;;;8.05;;
24337;SDS011;12457;50.832;4.346;2023-05-13T09:28:01;12.18;;;7.80;;
24337;SDS011;12457;50.832;4.346;2023-05-13T09:30:32;13.48;;;8.35;;
24337;SDS011;12457;50.832;4.346;2023-05-13T09:35:41;17.92;;;8.57;;
24337;SDS011;12457;50.832;4.346;2023-05-13T09:38:14;12.75;;;8.60;;
24337;SDS011;12457;50.832;4.346;2023-05-13T09:40:54;11.38;;;8.23;;
24337;SDS011;12457;50.832;4.346;2023-05-13T09:43:23;22.75;;;8.48;;
24337;SDS011;12457;50.832;4.346;2023-05-13T09:45:53;22.83;;;8.90;;
24337;SDS011;12457;50.832;4.346;2023-05-13T09:48:23;13.75;;;8.50;;
24337;SDS011;12457;50.832;4.346;2023-05-13T09:50:50;22.23;;;9.63;;
24337;SDS011;12457;50.832;4.346;2023-05-13T09:53:16;13.25;;;10.50;;
24337;SDS011;12457;50.832;4.346;2023-05-13T09:55:48;16.60;;;9.95;;
24337;SDS011;12457;50.832;4.346;2023-05-13T09:58:18;18.95;;;9.55;;
24337;SDS011;12457;50.832;4.346;2023-05-13T10:00:44;16.65;;;9.60;;
24337;SDS011;12457;50.832;4.346;2023-05-13T10:03:12;16.90;;;8.50;;
24337;SDS011;12457;50.832;4.346;2023-05-13T10:05:39;19.73;;;8.82;;
24337;SDS011;12457;50.832;4.346;2023-05-13T10:08:08;12.20;;;8.82;;
24337;SDS011;12457;50.832;4.346;2023-05-13T10:10:36;17.10;;;9.35;;
24337;SDS011;12457;50.832;4.346;2023-05-13T10:13:03;14.18;;;9.18;;
24337;SDS011;12457;50.832;4.346;2023-05-13T10:15:31;14.93;;;9.02;;
24337;SDS011;12457;50.832;4.346;2023-05-13T10:17:58;10.93;;;9.13;;
24337;SDS011;12457;50.832;4.346;2023-05-13T10:20:24;12.05;;;8.95;;
24337;SDS011;12457;50.832;4.346;2023-05-13T10:22:51;13.02;;;8.63;;
24337;SDS011;12457;50.832;4.346;2023-05-13T10:25:17;16.90;;;8.23;;
24337;SDS011;12457;50.832;4.346;2023-05-13T10:27:43;17.60;;;8.98;;
24337;SDS011;12457;50.832;4.346;2023-05-13T10:30:09;13.18;;;8.13;;
24337;SDS011;12457;50.832;4.346;2023-05-13T10:32:36;13.20;;;8.18;;
24337;SDS011;12457;50.832;4.346;2023-05-13T10:35:05;12.63;;;9.02;;
24337;SDS011;12457;50.832;4.346;2023-05-13T10:40:28;13.60;;;9.30;;
24337;SDS011;12457;50.832;4.346;2023-05-13T10:43:20;14.68;;;8.27;;
24337;SDS011;12457;50.832;4.346;2023-05-13T10:45:48;15.98;;;9.13;;
24337;SDS011;12457;50.832;4.346;2023-05-13T10:48:16;16.48;;;9.65;;
24337;SDS011;12457;50.832;4.346;2023-05-13T10:51:02;14.07;;;9.25;;
24337;SDS011;12457;50.832;4.346;2023-05-13T10:53:35;15.60;;;10.02;;
24337;SDS011;12457;50.832;4.346;2023-05-13T10:56:23;24.80;;;9.40;;
24337;SDS011;12457;50.832;4.346;2023-05-13T10:58:57;17.15;;;9.73;;
24337;SDS011;12457;50.832;4.346;2023-05-13T11:01:35;11.88;;;8.55;;
24337;SDS011;12457;50.832;4.346;2023-05-13T11:04:08;11.48;;;9.00;;
24337;SDS011;12457;50.832;4.346;2023-05-13T11:06:38;10.65;;;8.57;;
24337;SDS011;12457;50.832;4.346;2023-05-13T11:09:07;15.45;;;8.90;;
24337;SDS011;12457;50.832;4.346;2023-05-13T11:11:37;14.07;;;9.30;;
24337;SDS011;12457;50.832;4.346;2023-05-13T11:14:15;15.93;;;9.10;;
24337;SDS011;12457;50.832;4.346;2023-05-13T11:19:28;14.35;;;9.55;;
24337;SDS011;12457;50.832;4.346;2023-05-13T11:22:03;13.15;;;9.38;;
24337;SDS011;12457;50.832;4.346;2023-05-13T11:24:34;10.18;;;7.32;;
24337;SDS011;12457;50.832;4.346;2023-05-13T11:29:49;14.50;;;8.98;;
24337;SDS011;12457;50.832;4.346;2023-05-13T11:37:49;16.90;;;9.50;;
24337;SDS011;12457;50.832;4.346;2023-05-13T11:40:21;17.83;;;10.07;;
24337;SDS011;12457;50.832;4.346;2023-05-13T11:42:52;16.48;;;10.85;;
24337;SDS011;12457;50.832;4.346;2023-05-13T11:45:19;13.30;;;10.30;;
24337;SDS011;12457;50.832;4.346;2023-05-13T11:47:46;14.50;;;11.13;;
24337;SDS011;12457;50.832;4.346;2023-05-13T11:50:19;15.80;;;10.27;;
24337;SDS011;12457;50.832;4.346;2023-05-13T11:52:55;16.20;;;10.18;;
24337;SDS011;12457;50.832;4.346;2023-05-13T11:57:55;19.05;;;10.27;;
24337;SDS011;12457;50.832;4.346;2023-05-13T12:00:28;17.85;;;10.65;;
24337;SDS011;12457;50.832;4.346;2023-05-13T12:02:58;16.58;;;9.43;;
24337;SDS011;12457;50.832;4.346;2023-05-13T12:05:25;13.40;;;8.82;;
24337;SDS011;12457;50.832;4.346;2023-05-13T12:07:55;12.43;;;8.95;;
24337;SDS011;12457;50.832;4.346;2023-05-13T12:10:22;10.77;;;8.23;;
24337;SDS011;12457;50.832;4.346;2023-05-13T12:12:49;15.05;;;7.50;;
24337;SDS011;12457;50.832;4.346;2023-05-13T12:15:16;13.32;;;8.43;;
24337;SDS011;12457;50.832;4.346;2023-05-13T12:17:44;12.20;;;8.18;;
24337;SDS011;12457;50.832;4.346;2023-05-13T12:20:11;11.00;;;7.40;;
24337;SDS011;12457;50.832;4.346;2023-05-13T12:33:40;16.58;;;9.45;;
24337;SDS011;12457;50.832;4.346;2023-05-13T12:36:17;18.00;;;10.30;;
24337;SDS011;12457;50.832;4.346;2023-05-13T12:39:03;13.25;;;9.48;;
24337;SDS011;12457;50.832;4.346;2023-05-13T12:41:36;16.10;;;8.48;;
24337;SDS011;12457;50.832;4.346;2023-05-13T12:44:11;17.85;;;9.98;;
24337;SDS011;12457;50.832;4.346;2023-05-13T12:47:00;15.45;;;10.57;;
24337;SDS011;12457;50.832;4.346;2023-05-13T12:49:26;16.02;;;10.20;;
24337;SDS011;12457;50.832;4.346;2023-05-13T12:51:52;18.25;;;9.75;;
24337;SDS011;12457;50.832;4.346;2023-05-13T12:54:17;20.33;;;10.13;;
24337;SDS011;12457;50.832;4.346;2023-05-13T12:56:43;16.65;;;10.23;;
24337;SDS011;12457;50.832;4.346;2023-05-13T12:59:09;14.30;;;5.63;;
24337;SDS011;12457;50.832;4.346;2023-05-13T13:01:38;6.65;;;4.75;;
24337;SDS011;12457;50.832;4.346;2023-05-13T13:04:04;6.22;;;3.65;;
24337;SDS011;12457;50.832;4.346;2023-05-13T13:06:30;9.18;;;3.63;;
24337;SDS011;12457;50.832;4.346;2023-05-13T13:08:56;6.10;;;3.95;;
24337;SDS011;12457;50.832;4.346;2023-05-13T13:11:22;6.82;;;4.40;;
24337;SDS011;12457;50.832;4.346;2023-05-13T13:13:48;10.77;;;6.47;;
24337;SDS011;12457;50.832;4.346;2023-05-13T13:16:17;17.85;;;9.57;;
24337;SDS011;12457;50.832;4.346;2023-05-13T13:18:43;13.18;;;9.38;;
24337;SDS011;12457;50.832;4.346;2023-05-13T13:21:09;13.80;;;9.65;;
24337;SDS011;12457;50.832;4.346;2023-05-13T13:23:35;15.65;;;10.43;;
24337;SDS011;12457;50.832;4.346;2023-05-13T13:26:00;17.85;;;9.55;;
24337;SDS011;12457;50.832;4.346;2023-05-13T13:28:28;23.55;;;10.00;;
24337;SDS011;12457;50.832;4.346;2023-05-13T13:30:55;13.05;;;8.48;;
24337;SDS011;12457;50.832;4.346;2023-05-13T13:33:21;20.80;;;9.88;;
24337;SDS011;12457;50.832;4.346;2023-05-13T13:35:48;22.98;;;10.15;;
24337;SDS011;12457;50.832;4.346;2023-05-13T13:38:15;17.40;;;10.55;;
24337;SDS011;12457;50.832;4.346;2023-05-13T13:40:40;14.57;;;9.55;;
24337;SDS011;12457;50.832;4.346;2023-05-13T13:43:06;19.42;;;10.43;;
24337;SDS011;12457;50.832;4.346;2023-05-13T13:45:32;20.60;;;10.23;;
24337;SDS011;12457;50.832;4.346;2023-05-13T13:47:59;19.20;;;9.85;;
24337;SDS011;12457;50.832;4.346;2023-05-13T13:50:25;16.70;;;10.55;;
24337;SDS011;12457;50.832;4.346;2023-05-13T13:52:51;15.52;;;10.25;;
24337;SDS011;12457;50.832;4.346;2023-05-13T13:55:20;19.73;;;9.05;;
24337;SDS011;12457;50.832;4.346;2023-05-13T13:57:47;12.93;;;8.75;;
24337;SDS011;12457;50.832;4.346;2023-05-13T14:00:13;17.88;;;10.10;;
24337;SDS011;12457;50.832;4.346;2023-05-13T14:02:45;19.90;;;10.38;;
24337;SDS011;12457;50.832;4.346;2023-05-13T14:05:11;17.02;;;9.88;;
24337;SDS011;12457;50.832;4.346;2023-05-13T14:07:37;16.52;;;9.73;;
24337;SDS011;12457;50.832;4.346;2023-05-13T14:10:03;21.85;;;11.13;;
24337;SDS011;12457;50.832;4.346;2023-05-13T14:12:30;23.13;;;9.50;;
24337;SDS011;12457;50.832;4.346;2023-05-13T14:14:56;10.80;;;6.97;;
24337;SDS011;12457;50.832;4.346;2023-05-13T14:17:24;18.38;;;7.00;;
24337;SDS011;12457;50.832;4.346;2023-05-13T14:19:50;17.88;;;8.02;;
24337;SDS011;12457;50.832;4.346;2023-05-13T14:22:20;14.20;;;7.75;;
24337;SDS011;12457;50.832;4.346;2023-05-13T14:24:47;22.77;;;8.15;;
24337;SDS011;12457;50.832;4.346;2023-05-13T14:27:14;13.27;;;7.78;;
24337;SDS011;12457;50.832;4.346;2023-05-13T14:29:40;19.05;;;10.40;;
24337;SDS011;12457;50.832;4.346;2023-05-13T14:32:06;24.65;;;11.77;;
24337;SDS011;12457;50.832;4.346;2023-05-13T14:34:32;23.15;;;11.90;;
24337;SDS011;12457;50.832;4.346;2023-05-13T14:36:58;26.75;;;11.20;;
24337;SDS011;12457;50.832;4.346;2023-05-13T14:39:24;21.60;;;11.60;;
24337;SDS011;12457;50.832;4.346;2023-05-13T14:41:50;19.30;;;11.05;;
24337;SDS011;12457;50.832;4.346;2023-05-13T14:44:15;23.92;;;11.80;;
24337;SDS011;12457;50.832;4.346;2023-05-13T14:46:44;21.30;;;10.27;;
24337;SDS011;12457;50.832;4.346;2023-05-13T14:49:10;21.95;;;10.20;;
24337;SDS011;12457;50.832;4.346;2023-05-13T14:51:35;17.63;;;9.40;;
24337;SDS011;12457;50.832;4.346;2023-05-13T14:54:01;25.70;;;11.27;;
24337;SDS011;12457;50.832;4.346;2023-05-13T14:56:27;22.08;;;9.18;;
24337;SDS011;12457;50.832;4.346;2023-05-13T14:58:53;18.77;;;9.18;;
24337;SDS011;12457;50.832;4.346;2023-05-13T15:01:19;18.77;;;10.57;;
24337;SDS011;12457;50.832;4.346;2023-05-13T15:03:45;25.73;;;10.82;;
24337;SDS011;12457;50.832;4.346;2023-05-13T15:06:10;24.35;;;11.73;;
24337;SDS011;12457;50.832;4.346;2023-05-13T15:08:37;20.10;;;11.20;;
24337;SDS011;12457;50.832;4.346;2023-05-13T15:11:03;20.70;;;10.80;;
24337;SDS011;12457;50.832;4.346;2023-05-13T15:13:29;25.35;;;10.90;;
24337;SDS011;12457;50.832;4.346;2023-05-13T15:16:00;19.58;;;9.63;;
24337;SDS011;12457;50.832;4.346;2023-05-13T15:18:27;23.30;;;10.20;;